sensor_id;sensor_type;location;lat;lon;timestamp;P1;durP1;ratioP1;P2;durP2;ratioP2
10699;SDS011;5401;41.986;21.452;2023-06-22T00:01:53;63.13;;;25.77;;
10699;SDS011;5401;41.986;21.452;2023-06-22T00:04:20;36.60;;;19.30;;
10699;SDS011;5401;41.986;21.452;2023-06-22T00:06:47;33.20;;;18.47;;
10699;SDS011;5401;41.986;21.452;2023-06-22T00:09:15;33.63;;;18.50;;
10699;SDS011;5401;41.986;21.452;2023-06-22T00:11:43;92.63;;;32.37;;
10699;SDS011;5401;41.986;21.452;2023-06-22T00:14:11;33.47;;;19.03;;
10699;SDS011;5401;41.986;21.452;2023-06-22T00:16:39;36.70;;;19.00;;
10699;SDS011;5401;41.986;21.452;2023-06-22T00:19:08;88.60;;;33.10;;
10699;SDS011;5401;41.986;21.452;2023-06-22T00:21:37;26.73;;;17.03;;
10699;SDS011;5401;41.986;21.452;2023-06-22T00:24:05;22.87;;;16.73;;
10699;SDS011;5401;41.986;21.452;2023-06-22T00:26:33;67.50;;;27.80;;
10699;SDS011;5401;41.986;21.452;2023-06-22T00:29:00;32.33;;;16.57;;
10699;SDS011;5401;41.986;21.452;2023-06-22T00:31:29;28.13;;;15.67;;
10699;SDS011;5401;41.986;21.452;2023-06-22T00:33:57;40.07;;;21.07;;
10699;SDS011;5401;41.986;21.452;2023-06-22T00:36:24;50.50;;;21.87;;
10699;SDS011;5401;41.986;21.452;2023-06-22T00:38:52;25.60;;;16.67;;
10699;SDS011;5401;41.986;21.452;2023-06-22T00:41:19;23.67;;;16.70;;
10699;SDS011;5401;41.986;21.452;2023-06-22T00:43:47;59.20;;;26.57;;
10699;SDS011;5401;41.986;21.452;2023-06-22T00:46:14;24.30;;;17.07;;
10699;SDS011;5401;41.986;21.452;2023-06-22T00:48:43;27.73;;;16.60;;
10699;SDS011;5401;41.986;21.452;2023-06-22T00:51:11;56.47;;;25.77;;
10699;SDS011;5401;41.986;21.452;2023-06-22T00:53:39;20.87;;;15.53;;
10699;SDS011;5401;41.986;21.452;2023-06-22T00:56:06;25.07;;;14.80;;
10699;SDS011;5401;41.986;21.452;2023-06-22T00:58:34;34.33;;;19.93;;
10699;SDS011;5401;41.986;21.452;2023-06-22T01:01:02;30.47;;;18.60;;
10699;SDS011;5401;41.986;21.452;2023-06-22T01:03:30;21.83;;;14.57;;
10699;SDS011;5401;41.986;21.452;2023-06-22T01:06:02;35.57;;;17.63;;
10699;SDS011;5401;41.986;21.452;2023-06-22T01:08:36;35.00;;;17.93;;
10699;SDS011;5401;41.986;21.452;2023-06-22T01:11:10;32.10;;;18.53;;
10699;SDS011;5401;41.986;21.452;2023-06-22T01:13:45;62.13;;;27.43;;
10699;SDS011;5401;41.986;21.452;2023-06-22T01:16:23;23.47;;;16.30;;
10699;SDS011;5401;41.986;21.452;2023-06-22T01:18:55;38.80;;;20.53;;
10699;SDS011;5401;41.986;21.452;2023-06-22T01:21:29;28.50;;;17.10;;
10699;SDS011;5401;41.986;21.452;2023-06-22T01:24:02;30.40;;;17.13;;
10699;SDS011;5401;41.986;21.452;2023-06-22T01:26:48;25.33;;;18.00;;
10699;SDS011;5401;41.986;21.452;2023-06-22T01:29:26;29.83;;;17.03;;
10699;SDS011;5401;41.986;21.452;2023-06-22T01:31:56;41.07;;;23.17;;
10699;SDS011;5401;41.986;21.452;2023-06-22T01:34:24;21.50;;;17.20;;
10699;SDS011;5401;41.986;21.452;2023-06-22T01:36:52;21.20;;;16.57;;
10699;SDS011;5401;41.986;21.452;2023-06-22T01:39:20;39.90;;;22.23;;
10699;SDS011;5401;41.986;21.452;2023-06-22T01:41:49;22.43;;;17.00;;
10699;SDS011;5401;41.986;21.452;2023-06-22T01:44:17;19.43;;;15.43;;
10699;SDS011;5401;41.986;21.452;2023-06-22T01:46:46;28.90;;;19.03;;
10699;SDS011;5401;41.986;21.452;2023-06-22T01:49:16;20.90;;;16.73;;
10699;SDS011;5401;41.986;21.452;2023-06-22T01:51:43;22.70;;;17.50;;
10699;SDS011;5401;41.986;21.452;2023-06-22T01:54:11;22.07;;;17.33;;
10699;SDS011;5401;41.986;21.452;2023-06-22T01:56:38;33.67;;;21.87;;
10699;SDS011;5401;41.986;21.452;2023-06-22T01:59:08;24.60;;;16.50;;
10699;SDS011;5401;41.986;21.452;2023-06-22T02:01:50;31.40;;;20.67;;
10699;SDS011;5401;41.986;21.452;2023-06-22T02:04:22;19.03;;;16.30;;
10699;SDS011;5401;41.986;21.452;2023-06-22T02:06:54;23.30;;;17.53;;
10699;SDS011;5401;41.986;21.452;2023-06-22T02:09:25;37.87;;;22.53;;
10699;SDS011;5401;41.986;21.452;2023-06-22T02:11:55;25.23;;;17.10;;
10699;SDS011;5401;41.986;21.452;2023-06-22T02:14:24;23.77;;;15.60;;
10699;SDS011;5401;41.986;21.452;2023-06-22T02:16:53;36.63;;;23.03;;
10699;SDS011;5401;41.986;21.452;2023-06-22T02:19:24;17.03;;;14.83;;
10699;SDS011;5401;41.986;21.452;2023-06-22T02:21:53;20.67;;;16.90;;
10699;SDS011;5401;41.986;21.452;2023-06-22T02:24:21;37.87;;;22.70;;
10699;SDS011;5401;41.986;21.452;2023-06-22T02:26:50;20.00;;;16.80;;
10699;SDS011;5401;41.986;21.452;2023-06-22T02:29:17;21.17;;;16.63;;
10699;SDS011;5401;41.986;21.452;2023-06-22T02:31:45;30.37;;;21.70;;
10699;SDS011;5401;41.986;21.452;2023-06-22T02:34:14;21.10;;;15.87;;
10699;SDS011;5401;41.986;21.452;2023-06-22T02:36:44;24.60;;;17.33;;
10699;SDS011;5401;41.986;21.452;2023-06-22T02:39:18;31.17;;;20.67;;
10699;SDS011;5401;41.986;21.452;2023-06-22T02:41:48;18.00;;;15.57;;
10699;SDS011;5401;41.986;21.452;2023-06-22T02:44:15;20.67;;;17.50;;
10699;SDS011;5401;41.986;21.452;2023-06-22T02:46:43;27.23;;;20.53;;
10699;SDS011;5401;41.986;21.452;2023-06-22T02:49:11;19.87;;;15.57;;
10699;SDS011;5401;41.986;21.452;2023-06-22T02:51:42;21.13;;;15.90;;
10699;SDS011;5401;41.986;21.452;2023-06-22T02:54:12;25.60;;;19.47;;
10699;SDS011;5401;41.986;21.452;2023-06-22T02:56:39;20.90;;;17.47;;
10699;SDS011;5401;41.986;21.452;2023-06-22T02:59:09;23.23;;;17.40;;
10699;SDS011;5401;41.986;21.452;2023-06-22T03:01:37;23.43;;;17.73;;
10699;SDS011;5401;41.986;21.452;2023-06-22T03:04:05;26.07;;;20.53;;
10699;SDS011;5401;41.986;21.452;2023-06-22T03:06:33;17.40;;;15.60;;
10699;SDS011;5401;41.986;21.452;2023-06-22T03:09:03;18.23;;;16.47;;
10699;SDS011;5401;41.986;21.452;2023-06-22T03:11:31;20.80;;;18.70;;
10699;SDS011;5401;41.986;21.452;2023-06-22T03:13:59;22.03;;;15.90;;
10699;SDS011;5401;41.986;21.452;2023-06-22T03:16:27;17.03;;;15.33;;
10699;SDS011;5401;41.986;21.452;2023-06-22T03:18:55;25.27;;;20.33;;
10699;SDS011;5401;41.986;21.452;2023-06-22T03:21:23;18.27;;;16.13;;
10699;SDS011;5401;41.986;21.452;2023-06-22T03:23:51;22.43;;;16.23;;
10699;SDS011;5401;41.986;21.452;2023-06-22T03:26:19;18.90;;;16.87;;
10699;SDS011;5401;41.986;21.452;2023-06-22T03:28:47;16.80;;;15.03;;
10699;SDS011;5401;41.986;21.452;2023-06-22T03:31:14;22.30;;;19.83;;
10699;SDS011;5401;41.986;21.452;2023-06-22T03:33:42;27.13;;;20.90;;
10699;SDS011;5401;41.986;21.452;2023-06-22T03:36:09;28.07;;;22.77;;
10699;SDS011;5401;41.986;21.452;2023-06-22T03:38:37;20.30;;;15.80;;
10699;SDS011;5401;41.986;21.452;2023-06-22T03:41:04;20.20;;;15.07;;
10699;SDS011;5401;41.986;21.452;2023-06-22T03:43:33;23.97;;;19.90;;
10699;SDS011;5401;41.986;21.452;2023-06-22T03:46:00;17.77;;;15.97;;
10699;SDS011;5401;41.986;21.452;2023-06-22T03:48:28;16.17;;;13.50;;
10699;SDS011;5401;41.986;21.452;2023-06-22T03:50:55;18.37;;;15.50;;
10699;SDS011;5401;41.986;21.452;2023-06-22T03:53:23;15.33;;;13.73;;
10699;SDS011;5401;41.986;21.452;2023-06-22T03:55:51;18.30;;;14.70;;
10699;SDS011;5401;41.986;21.452;2023-06-22T03:58:19;16.23;;;14.50;;
10699;SDS011;5401;41.986;21.452;2023-06-22T04:00:49;33.40;;;26.03;;
10699;SDS011;5401;41.986;21.452;2023-06-22T04:03:20;18.73;;;14.47;;
10699;SDS011;5401;41.986;21.452;2023-06-22T04:05:48;16.87;;;14.40;;
10699;SDS011;5401;41.986;21.452;2023-06-22T04:08:15;19.10;;;15.43;;
10699;SDS011;5401;41.986;21.452;2023-06-22T04:10:43;17.60;;;13.77;;
10699;SDS011;5401;41.986;21.452;2023-06-22T04:13:10;18.37;;;14.67;;
10699;SDS011;5401;41.986;21.452;2023-06-22T04:15:38;29.10;;;20.13;;
10699;SDS011;5401;41.986;21.452;2023-06-22T04:18:07;19.80;;;13.47;;
10699;SDS011;5401;41.986;21.452;2023-06-22T04:20:34;16.77;;;13.53;;
10699;SDS011;5401;41.986;21.452;2023-06-22T04:23:02;34.23;;;19.23;;
10699;SDS011;5401;41.986;21.452;2023-06-22T04:25:29;24.00;;;13.73;;
10699;SDS011;5401;41.986;21.452;2023-06-22T04:27:56;24.17;;;14.60;;
10699;SDS011;5401;41.986;21.452;2023-06-22T04:30:24;19.90;;;12.97;;
10699;SDS011;5401;41.986;21.452;2023-06-22T04:32:52;64.23;;;24.07;;
10699;SDS011;5401;41.986;21.452;2023-06-22T04:35:24;25.93;;;14.10;;
10699;SDS011;5401;41.986;21.452;2023-06-22T04:37:53;23.20;;;14.27;;
10699;SDS011;5401;41.986;21.452;2023-06-22T04:40:23;55.27;;;21.67;;
10699;SDS011;5401;41.986;21.452;2023-06-22T04:42:51;31.17;;;16.07;;
10699;SDS011;5401;41.986;21.452;2023-06-22T04:45:21;39.57;;;18.93;;
10699;SDS011;5401;41.986;21.452;2023-06-22T04:47:49;182.03;;;66.30;;
10699;SDS011;5401;41.986;21.452;2023-06-22T04:50:16;57.47;;;25.43;;
10699;SDS011;5401;41.986;21.452;2023-06-22T04:52:48;64.03;;;29.47;;
10699;SDS011;5401;41.986;21.452;2023-06-22T04:55:15;878.77;;;805.70;;
10699;SDS011;5401;41.986;21.452;2023-06-22T04:57:45;630.60;;;587.60;;
10699;SDS011;5401;41.986;21.452;2023-06-22T05:00:15;92.40;;;84.23;;
10699;SDS011;5401;41.986;21.452;2023-06-22T05:02:45;173.87;;;55.70;;
10699;SDS011;5401;41.986;21.452;2023-06-22T05:05:13;53.63;;;19.40;;
10699;SDS011;5401;41.986;21.452;2023-06-22T05:07:42;36.30;;;17.93;;
10699;SDS011;5401;41.986;21.452;2023-06-22T05:10:15;125.00;;;39.60;;
10699;SDS011;5401;41.986;21.452;2023-06-22T05:12:42;40.30;;;17.50;;
10699;SDS011;5401;41.986;21.452;2023-06-22T05:15:10;55.10;;;21.13;;
10699;SDS011;5401;41.986;21.452;2023-06-22T05:17:37;82.73;;;28.90;;
10699;SDS011;5401;41.986;21.452;2023-06-22T05:20:08;47.72;;;19.60;;
10699;SDS011;5401;41.986;21.452;2023-06-22T05:22:37;55.83;;;27.67;;
10699;SDS011;5401;41.986;21.452;2023-06-22T05:25:05;150.53;;;75.20;;
10699;SDS011;5401;41.986;21.452;2023-06-22T05:27:36;62.30;;;48.40;;
10699;SDS011;5401;41.986;21.452;2023-06-22T05:30:05;55.03;;;24.57;;
10699;SDS011;5401;41.986;21.452;2023-06-22T05:32:34;138.57;;;44.40;;
10699;SDS011;5401;41.986;21.452;2023-06-22T05:35:01;40.23;;;18.23;;
10699;SDS011;5401;41.986;21.452;2023-06-22T05:37:29;38.10;;;17.43;;
10699;SDS011;5401;41.986;21.452;2023-06-22T05:39:57;74.90;;;25.63;;
10699;SDS011;5401;41.986;21.452;2023-06-22T05:42:24;150.43;;;50.10;;
10699;SDS011;5401;41.986;21.452;2023-06-22T05:44:53;44.67;;;19.50;;
10699;SDS011;5401;41.986;21.452;2023-06-22T05:47:21;59.50;;;34.37;;
10699;SDS011;5401;41.986;21.452;2023-06-22T05:49:48;250.17;;;128.23;;
10699;SDS011;5401;41.986;21.452;2023-06-22T05:52:16;64.53;;;57.07;;
10699;SDS011;5401;41.986;21.452;2023-06-22T05:54:43;369.90;;;341.70;;
10699;SDS011;5401;41.986;21.452;2023-06-22T05:57:11;216.40;;;128.73;;
10699;SDS011;5401;41.986;21.452;2023-06-22T05:59:38;53.20;;;24.77;;
10699;SDS011;5401;41.986;21.452;2023-06-22T06:02:09;41.77;;;19.63;;
10699;SDS011;5401;41.986;21.452;2023-06-22T06:04:36;48.67;;;19.60;;
10699;SDS011;5401;41.986;21.452;2023-06-22T06:07:04;92.07;;;36.23;;
10699;SDS011;5401;41.986;21.452;2023-06-22T06:09:32;72.70;;;28.67;;
10699;SDS011;5401;41.986;21.452;2023-06-22T06:11:59;56.37;;;22.77;;
10699;SDS011;5401;41.986;21.452;2023-06-22T06:14:28;228.07;;;91.90;;
10699;SDS011;5401;41.986;21.452;2023-06-22T06:16:56;46.63;;;22.73;;
10699;SDS011;5401;41.986;21.452;2023-06-22T06:19:24;484.07;;;448.37;;
10699;SDS011;5401;41.986;21.452;2023-06-22T06:21:52;263.03;;;133.00;;
10699;SDS011;5401;41.986;21.452;2023-06-22T06:24:20;704.20;;;652.73;;
10699;SDS011;5401;41.986;21.452;2023-06-22T06:26:47;529.43;;;489.27;;
10699;SDS011;5401;41.986;21.452;2023-06-22T06:29:15;136.67;;;93.00;;
10699;SDS011;5401;41.986;21.452;2023-06-22T06:31:43;929.47;;;863.60;;
10699;SDS011;5401;41.986;21.452;2023-06-22T06:34:10;510.77;;;476.90;;
10699;SDS011;5401;41.986;21.452;2023-06-22T06:36:39;43.47;;;19.43;;
10699;SDS011;5401;41.986;21.452;2023-06-22T06:39:07;181.00;;;69.43;;
10699;SDS011;5401;41.986;21.452;2023-06-22T06:41:35;61.30;;;52.70;;
10699;SDS011;5401;41.986;21.452;2023-06-22T06:44:02;50.27;;;24.63;;
10699;SDS011;5401;41.986;21.452;2023-06-22T06:46:30;586.00;;;535.37;;
10699;SDS011;5401;41.986;21.452;2023-06-22T06:48:58;1150.13;;;999.90;;
10699;SDS011;5401;41.986;21.452;2023-06-22T06:51:26;1159.43;;;999.90;;
10699;SDS011;5401;41.986;21.452;2023-06-22T06:53:55;1206.23;;;999.90;;
10699;SDS011;5401;41.986;21.452;2023-06-22T06:56:22;1155.93;;;999.90;;
10699;SDS011;5401;41.986;21.452;2023-06-22T06:58:50;1134.07;;;999.90;;
10699;SDS011;5401;41.986;21.452;2023-06-22T07:01:18;1167.23;;;999.90;;
10699;SDS011;5401;41.986;21.452;2023-06-22T07:03:46;1219.63;;;999.90;;
10699;SDS011;5401;41.986;21.452;2023-06-22T07:06:14;1140.47;;;999.90;;
10699;SDS011;5401;41.986;21.452;2023-06-22T07:08:42;1134.97;;;999.90;;
10699;SDS011;5401;41.986;21.452;2023-06-22T07:11:11;1243.80;;;999.90;;
10699;SDS011;5401;41.986;21.452;2023-06-22T07:13:38;1154.73;;;999.90;;
10699;SDS011;5401;41.986;21.452;2023-06-22T07:16:05;1002.83;;;921.70;;
10699;SDS011;5401;41.986;21.452;2023-06-22T07:18:33;1237.10;;;999.90;;
10699;SDS011;5401;41.986;21.452;2023-06-22T07:21:00;1171.87;;;999.90;;
10699;SDS011;5401;41.986;21.452;2023-06-22T07:23:29;1156.33;;;999.90;;
10699;SDS011;5401;41.986;21.452;2023-06-22T07:25:56;1167.67;;;999.90;;
10699;SDS011;5401;41.986;21.452;2023-06-22T07:28:28;850.67;;;784.90;;
10699;SDS011;5401;41.986;21.452;2023-06-22T07:30:56;1151.10;;;999.90;;
10699;SDS011;5401;41.986;21.452;2023-06-22T07:33:24;993.57;;;915.23;;
10699;SDS011;5401;41.986;21.452;2023-06-22T07:35:53;1209.83;;;999.90;;
10699;SDS011;5401;41.986;21.452;2023-06-22T07:38:20;741.83;;;679.57;;
10699;SDS011;5401;41.986;21.452;2023-06-22T07:40:48;339.87;;;312.73;;
10699;SDS011;5401;41.986;21.452;2023-06-22T07:43:16;235.63;;;98.30;;
10699;SDS011;5401;41.986;21.452;2023-06-22T07:45:49;212.20;;;195.93;;
10699;SDS011;5401;41.986;21.452;2023-06-22T07:48:20;150.97;;;138.70;;
10699;SDS011;5401;41.986;21.452;2023-06-22T07:50:48;210.00;;;97.00;;
10699;SDS011;5401;41.986;21.452;2023-06-22T07:53:15;47.63;;;20.77;;
10699;SDS011;5401;41.986;21.452;2023-06-22T07:55:43;48.07;;;22.40;;
10699;SDS011;5401;41.986;21.452;2023-06-22T07:58:10;174.93;;;61.50;;
10699;SDS011;5401;41.986;21.452;2023-06-22T08:00:38;45.37;;;20.97;;
10699;SDS011;5401;41.986;21.452;2023-06-22T08:03:06;46.93;;;19.20;;
10699;SDS011;5401;41.986;21.452;2023-06-22T08:05:34;85.03;;;33.87;;
10699;SDS011;5401;41.986;21.452;2023-06-22T08:08:01;68.00;;;28.67;;
10699;SDS011;5401;41.986;21.452;2023-06-22T08:10:29;39.53;;;19.90;;
10699;SDS011;5401;41.986;21.452;2023-06-22T08:12:56;29.90;;;16.70;;
10699;SDS011;5401;41.986;21.452;2023-06-22T08:17:54;34.77;;;16.37;;
10699;SDS011;5401;41.986;21.452;2023-06-22T08:20:22;41.30;;;17.43;;
10699;SDS011;5401;41.986;21.452;2023-06-22T08:22:50;165.13;;;51.53;;
10699;SDS011;5401;41.986;21.452;2023-06-22T08:25:17;44.70;;;21.70;;
10699;SDS011;5401;41.986;21.452;2023-06-22T08:27:45;50.93;;;33.30;;
10699;SDS011;5401;41.986;21.452;2023-06-22T08:30:14;150.13;;;50.13;;
10699;SDS011;5401;41.986;21.452;2023-06-22T08:32:41;32.57;;;17.13;;
10699;SDS011;5401;41.986;21.452;2023-06-22T08:35:09;47.87;;;20.53;;
10699;SDS011;5401;41.986;21.452;2023-06-22T08:37:38;52.80;;;21.50;;
10699;SDS011;5401;41.986;21.452;2023-06-22T08:40:06;127.07;;;43.23;;
10699;SDS011;5401;41.986;21.452;2023-06-22T08:42:35;61.77;;;23.87;;
10699;SDS011;5401;41.986;21.452;2023-06-22T08:45:03;55.70;;;21.90;;
10699;SDS011;5401;41.986;21.452;2023-06-22T08:47:31;182.63;;;60.53;;
10699;SDS011;5401;41.986;21.452;2023-06-22T08:49:59;50.97;;;20.97;;
10699;SDS011;5401;41.986;21.452;2023-06-22T08:52:28;46.53;;;20.93;;
10699;SDS011;5401;41.986;21.452;2023-06-22T08:54:57;170.07;;;52.63;;
10699;SDS011;5401;41.986;21.452;2023-06-22T08:57:24;62.20;;;23.73;;
10699;SDS011;5401;41.986;21.452;2023-06-22T08:59:52;59.20;;;37.63;;
10699;SDS011;5401;41.986;21.452;2023-06-22T09:02:23;324.27;;;266.23;;
10699;SDS011;5401;41.986;21.452;2023-06-22T09:04:51;649.80;;;603.60;;
10699;SDS011;5401;41.986;21.452;2023-06-22T09:07:21;653.80;;;607.00;;
10699;SDS011;5401;41.986;21.452;2023-06-22T09:09:49;904.50;;;832.47;;
10699;SDS011;5401;41.986;21.452;2023-06-22T09:12:19;932.60;;;864.40;;
10699;SDS011;5401;41.986;21.452;2023-06-22T09:14:51;515.60;;;478.13;;
10699;SDS011;5401;41.986;21.452;2023-06-22T09:17:19;131.73;;;43.53;;
10699;SDS011;5401;41.986;21.452;2023-06-22T09:19:46;58.03;;;47.33;;
10699;SDS011;5401;41.986;21.452;2023-06-22T09:22:14;883.77;;;821.00;;
10699;SDS011;5401;41.986;21.452;2023-06-22T09:24:41;1004.67;;;932.03;;
10699;SDS011;5401;41.986;21.452;2023-06-22T09:27:09;1251.07;;;999.90;;
10699;SDS011;5401;41.986;21.452;2023-06-22T09:29:38;1210.83;;;999.90;;
10699;SDS011;5401;41.986;21.452;2023-06-22T09:32:06;31.33;;;15.63;;
10699;SDS011;5401;41.986;21.452;2023-06-22T09:34:34;395.57;;;354.03;;
10699;SDS011;5401;41.986;21.452;2023-06-22T09:37:01;1193.63;;;999.90;;
10699;SDS011;5401;41.986;21.452;2023-06-22T09:39:29;1249.47;;;999.90;;
10699;SDS011;5401;41.986;21.452;2023-06-22T09:41:57;1311.33;;;999.90;;
10699;SDS011;5401;41.986;21.452;2023-06-22T09:44:25;1016.70;;;945.93;;
10699;SDS011;5401;41.986;21.452;2023-06-22T09:46:54;1158.73;;;999.90;;
10699;SDS011;5401;41.986;21.452;2023-06-22T09:49:22;468.07;;;432.17;;
10699;SDS011;5401;41.986;21.452;2023-06-22T09:51:49;750.80;;;695.63;;
10699;SDS011;5401;41.986;21.452;2023-06-22T09:54:18;506.13;;;469.43;;
10699;SDS011;5401;41.986;21.452;2023-06-22T09:56:45;593.67;;;553.17;;
10699;SDS011;5401;41.986;21.452;2023-06-22T09:59:13;173.70;;;55.03;;
10699;SDS011;5401;41.986;21.452;2023-06-22T10:01:41;42.93;;;17.80;;
10699;SDS011;5401;41.986;21.452;2023-06-22T10:04:10;42.60;;;17.20;;
10699;SDS011;5401;41.986;21.452;2023-06-22T10:06:37;197.00;;;66.53;;
10699;SDS011;5401;41.986;21.452;2023-06-22T10:09:06;58.10;;;22.40;;
10699;SDS011;5401;41.986;21.452;2023-06-22T10:11:34;71.00;;;30.10;;
10699;SDS011;5401;41.986;21.452;2023-06-22T10:14:02;158.80;;;49.80;;
10699;SDS011;5401;41.986;21.452;2023-06-22T10:16:31;88.97;;;79.20;;
10699;SDS011;5401;41.986;21.452;2023-06-22T10:18:59;68.43;;;28.57;;
10699;SDS011;5401;41.986;21.452;2023-06-22T10:21:28;64.03;;;24.90;;
10699;SDS011;5401;41.986;21.452;2023-06-22T10:23:56;45.70;;;18.43;;
10699;SDS011;5401;41.986;21.452;2023-06-22T10:26:23;36.30;;;13.23;;
10699;SDS011;5401;41.986;21.452;2023-06-22T10:28:54;38.83;;;15.00;;
10699;SDS011;5401;41.986;21.452;2023-06-22T10:31:22;137.57;;;44.07;;
10699;SDS011;5401;41.986;21.452;2023-06-22T10:33:49;30.33;;;12.83;;
10699;SDS011;5401;41.986;21.452;2023-06-22T10:36:17;47.90;;;17.50;;
10699;SDS011;5401;41.986;21.452;2023-06-22T10:38:45;135.83;;;40.37;;
10699;SDS011;5401;41.986;21.452;2023-06-22T10:41:14;32.73;;;15.37;;
10699;SDS011;5401;41.986;21.452;2023-06-22T10:43:41;35.00;;;14.63;;
10699;SDS011;5401;41.986;21.452;2023-06-22T10:46:09;128.60;;;40.70;;
10699;SDS011;5401;41.986;21.452;2023-06-22T10:48:37;45.43;;;18.77;;
10699;SDS011;5401;41.986;21.452;2023-06-22T10:51:05;28.50;;;12.83;;
10699;SDS011;5401;41.986;21.452;2023-06-22T10:53:32;37.97;;;14.67;;
10699;SDS011;5401;41.986;21.452;2023-06-22T10:56:01;100.30;;;31.47;;
10699;SDS011;5401;41.986;21.452;2023-06-22T10:58:29;41.13;;;16.27;;
10699;SDS011;5401;41.986;21.452;2023-06-22T11:00:56;32.63;;;14.23;;
10699;SDS011;5401;41.986;21.452;2023-06-22T11:03:24;115.07;;;36.00;;
10699;SDS011;5401;41.986;21.452;2023-06-22T11:05:52;28.73;;;12.70;;
10699;SDS011;5401;41.986;21.452;2023-06-22T11:08:19;33.37;;;12.27;;
10699;SDS011;5401;41.986;21.452;2023-06-22T11:10:47;107.23;;;32.17;;
10699;SDS011;5401;41.986;21.452;2023-06-22T11:13:16;30.20;;;18.87;;
10699;SDS011;5401;41.986;21.452;2023-06-22T11:15:44;94.47;;;71.40;;
10699;SDS011;5401;41.986;21.452;2023-06-22T11:18:11;67.93;;;31.77;;
10699;SDS011;5401;41.986;21.452;2023-06-22T11:20:41;94.03;;;75.53;;
10699;SDS011;5401;41.986;21.452;2023-06-22T11:23:09;45.77;;;25.70;;
10699;SDS011;5401;41.986;21.452;2023-06-22T11:25:37;31.43;;;13.67;;
10699;SDS011;5401;41.986;21.452;2023-06-22T11:28:08;80.03;;;50.57;;
10699;SDS011;5401;41.986;21.452;2023-06-22T11:30:37;49.67;;;40.17;;
10699;SDS011;5401;41.986;21.452;2023-06-22T11:33:04;27.50;;;13.63;;
10699;SDS011;5401;41.986;21.452;2023-06-22T11:35:32;99.97;;;30.53;;
10699;SDS011;5401;41.986;21.452;2023-06-22T11:37:59;23.47;;;11.47;;
10699;SDS011;5401;41.986;21.452;2023-06-22T11:40:29;18.13;;;10.87;;
10699;SDS011;5401;41.986;21.452;2023-06-22T11:42:56;100.40;;;29.20;;
10699;SDS011;5401;41.986;21.452;2023-06-22T11:45:24;26.20;;;13.27;;
10699;SDS011;5401;41.986;21.452;2023-06-22T11:47:53;20.80;;;10.80;;
10699;SDS011;5401;41.986;21.452;2023-06-22T11:50:20;55.67;;;21.03;;
10699;SDS011;5401;41.986;21.452;2023-06-22T11:52:48;26.03;;;11.60;;
10699;SDS011;5401;41.986;21.452;2023-06-22T11:55:15;25.93;;;12.00;;
10699;SDS011;5401;41.986;21.452;2023-06-22T11:57:52;20.73;;;10.63;;
10699;SDS011;5401;41.986;21.452;2023-06-22T12:00:21;19.13;;;10.67;;
10699;SDS011;5401;41.986;21.452;2023-06-22T12:02:50;25.73;;;13.53;;
10699;SDS011;5401;41.986;21.452;2023-06-22T12:05:19;58.10;;;21.93;;
10699;SDS011;5401;41.986;21.452;2023-06-22T12:07:48;22.93;;;11.53;;
10699;SDS011;5401;41.986;21.452;2023-06-22T12:10:15;46.33;;;16.20;;
10699;SDS011;5401;41.986;21.452;2023-06-22T12:12:43;25.70;;;11.70;;
10699;SDS011;5401;41.986;21.452;2023-06-22T12:15:12;51.27;;;19.10;;
10699;SDS011;5401;41.986;21.452;2023-06-22T12:17:39;26.27;;;11.93;;
10699;SDS011;5401;41.986;21.452;2023-06-22T12:20:07;25.13;;;11.30;;
10699;SDS011;5401;41.986;21.452;2023-06-22T12:22:40;71.80;;;22.67;;
10699;SDS011;5401;41.986;21.452;2023-06-22T12:25:08;24.53;;;11.40;;
10699;SDS011;5401;41.986;21.452;2023-06-22T12:27:36;21.87;;;10.77;;
10699;SDS011;5401;41.986;21.452;2023-06-22T12:30:04;70.83;;;23.57;;
10699;SDS011;5401;41.986;21.452;2023-06-22T12:32:32;30.80;;;12.23;;
10699;SDS011;5401;41.986;21.452;2023-06-22T12:35:00;21.10;;;10.27;;
10699;SDS011;5401;41.986;21.452;2023-06-22T12:37:28;72.07;;;23.17;;
10699;SDS011;5401;41.986;21.452;2023-06-22T12:39:58;32.57;;;11.40;;
10699;SDS011;5401;41.986;21.452;2023-06-22T12:42:26;19.67;;;8.57;;
10699;SDS011;5401;41.986;21.452;2023-06-22T12:44:53;46.20;;;16.47;;
10699;SDS011;5401;41.986;21.452;2023-06-22T12:47:21;21.43;;;9.57;;
10699;SDS011;5401;41.986;21.452;2023-06-22T12:49:48;21.10;;;8.70;;
10699;SDS011;5401;41.986;21.452;2023-06-22T12:52:16;15.93;;;8.43;;
10699;SDS011;5401;41.986;21.452;2023-06-22T12:54:43;85.93;;;27.00;;
10699;SDS011;5401;41.986;21.452;2023-06-22T12:57:12;21.03;;;8.77;;
10699;SDS011;5401;41.986;21.452;2023-06-22T12:59:40;18.10;;;9.43;;
10699;SDS011;5401;41.986;21.452;2023-06-22T13:02:07;80.03;;;23.13;;
10699;SDS011;5401;41.986;21.452;2023-06-22T13:04:35;14.47;;;8.23;;
10699;SDS011;5401;41.986;21.452;2023-06-22T13:07:03;19.73;;;8.70;;
10699;SDS011;5401;41.986;21.452;2023-06-22T13:09:31;40.63;;;16.43;;
10699;SDS011;5401;41.986;21.452;2023-06-22T13:12:00;23.27;;;9.23;;
10699;SDS011;5401;41.986;21.452;2023-06-22T13:14:29;19.40;;;9.23;;
10699;SDS011;5401;41.986;21.452;2023-06-22T13:16:56;24.03;;;10.63;;
10699;SDS011;5401;41.986;21.452;2023-06-22T13:19:24;40.67;;;14.47;;
10699;SDS011;5401;41.986;21.452;2023-06-22T13:21:54;16.33;;;7.87;;
10699;SDS011;5401;41.986;21.452;2023-06-22T13:24:22;15.20;;;7.63;;
10699;SDS011;5401;41.986;21.452;2023-06-22T13:26:49;61.83;;;19.60;;
10699;SDS011;5401;41.986;21.452;2023-06-22T13:29:16;19.87;;;7.70;;
10699;SDS011;5401;41.986;21.452;2023-06-22T13:31:45;12.83;;;6.37;;
10699;SDS011;5401;41.986;21.452;2023-06-22T13:34:13;65.60;;;19.07;;
10699;SDS011;5401;41.986;21.452;2023-06-22T13:36:40;25.27;;;9.90;;
10699;SDS011;5401;41.986;21.452;2023-06-22T13:39:08;17.53;;;7.57;;
10699;SDS011;5401;41.986;21.452;2023-06-22T13:41:35;40.97;;;13.53;;
10699;SDS011;5401;41.986;21.452;2023-06-22T13:44:03;27.07;;;10.40;;
10699;SDS011;5401;41.986;21.452;2023-06-22T13:46:30;31.73;;;11.43;;
10699;SDS011;5401;41.986;21.452;2023-06-22T13:49:00;21.20;;;8.77;;
10699;SDS011;5401;41.986;21.452;2023-06-22T13:51:27;88.73;;;25.77;;
10699;SDS011;5401;41.986;21.452;2023-06-22T13:53:55;25.90;;;9.67;;
10699;SDS011;5401;41.986;21.452;2023-06-22T13:56:22;19.77;;;8.53;;
10699;SDS011;5401;41.986;21.452;2023-06-22T13:58:50;80.47;;;23.93;;
10699;SDS011;5401;41.986;21.452;2023-06-22T14:01:17;27.67;;;9.30;;
10699;SDS011;5401;41.986;21.452;2023-06-22T14:03:45;18.63;;;7.10;;
10699;SDS011;5401;41.986;21.452;2023-06-22T14:06:16;66.17;;;20.27;;
10699;SDS011;5401;41.986;21.452;2023-06-22T14:08:44;24.50;;;8.43;;
10699;SDS011;5401;41.986;21.452;2023-06-22T14:11:11;16.07;;;7.17;;
10699;SDS011;5401;41.986;21.452;2023-06-22T14:13:39;23.10;;;8.27;;
10699;SDS011;5401;41.986;21.452;2023-06-22T14:16:08;43.70;;;13.57;;
10699;SDS011;5401;41.986;21.452;2023-06-22T14:18:36;13.77;;;5.83;;
10699;SDS011;5401;41.986;21.452;2023-06-22T14:21:03;18.20;;;7.97;;
10699;SDS011;5401;41.986;21.452;2023-06-22T14:23:33;64.00;;;18.50;;
10699;SDS011;5401;41.986;21.452;2023-06-22T14:26:00;12.23;;;6.50;;